Time;durP1;ratioP1;P1;durP2;ratioP2;P2;SDS_P1;SDS_P2;PMS_P1;PMS_P2;Temp;Humidity;BMP_temperature;BMP_pressure;BME280_temperature;BME280_humidity;BME280_pressure;Samples;Min_cycle;Max_cycle;Signal;HPM_P1;HPM_P2
2023/06/28 00:01:41;;;;;;;5.78;3.00;;;;;;;19.85;69.44;100245.19;5070240;28;20035;-67
2023/06/28 00:04:06;;;;;;;7.00;2.90;;;;;;;19.84;69.26;100249.81;5069075;28;20023;-67
2023/06/28 00:06:32;;;;;;;3.72;2.60;;;;;;;19.78;69.10;100237.00;5073292;28;20399;-67
2023/06/28 00:09:00;;;;;;;5.72;2.58;;;;;;;19.84;69.33;100249.81;5058620;28;20079;-68
2023/06/28 00:11:27;;;;;;;5.28;3.05;;;;;;;19.75;69.00;100234.66;5085547;28;20495;-67
2023/06/28 00:13:53;;;;;;;4.05;2.90;;;;;;;19.83;69.35;100237.22;5084910;28;20538;-67
2023/06/28 00:16:19;;;;;;;5.10;2.80;;;;;;;19.84;68.77;100238.06;5074325;28;20138;-67
2023/06/28 00:18:45;;;;;;;4.07;2.95;;;;;;;19.83;68.61;100239.94;5075120;28;20024;-66
2023/06/28 00:21:14;;;;;;;4.97;3.03;;;;;;;19.82;68.44;100242.84;5073423;28;20051;-66
2023/06/28 00:23:40;;;;;;;6.53;3.20;;;;;;;19.85;68.23;100243.31;5075422;28;20137;-66
2023/06/28 00:26:06;;;;;;;4.80;3.00;;;;;;;19.84;68.24;100243.53;5081915;28;20048;-67
2023/06/28 00:28:31;;;;;;;4.30;3.22;;;;;;;19.82;67.84;100249.16;5060729;28;20031;-66
2023/06/28 00:30:56;;;;;;;5.57;2.95;;;;;;;19.75;68.23;100255.56;5077136;28;20467;-67
2023/06/28 00:33:22;;;;;;;5.45;3.28;;;;;;;19.76;68.41;100249.94;5075588;28;20024;-67
2023/06/28 00:35:48;;;;;;;4.07;3.30;;;;;;;19.75;68.72;100250.97;5058021;28;20025;-67
2023/06/28 00:38:14;;;;;;;6.78;2.95;;;;;;;19.70;68.55;100248.00;5075589;28;20123;-67
2023/06/28 00:40:39;;;;;;;5.47;3.05;;;;;;;19.76;68.64;100255.38;5069938;28;20023;-66
2023/06/28 00:43:05;;;;;;;5.00;3.00;;;;;;;19.70;68.56;100239.81;5065202;28;20099;-67
2023/06/28 00:45:30;;;;;;;8.32;3.10;;;;;;;19.71;68.88;100246.97;5070432;28;20036;-66
2023/06/28 00:47:56;;;;;;;5.13;3.10;;;;;;;19.68;69.16;100244.63;5083191;28;20040;-66
2023/06/28 00:50:21;;;;;;;5.25;3.20;;;;;;;19.51;69.13;100229.59;5079144;28;20475;-67
2023/06/28 00:52:47;;;;;;;4.18;2.88;;;;;;;19.57;69.38;100245.13;5075881;28;20530;-67
2023/06/28 00:55:13;;;;;;;3.47;2.80;;;;;;;19.55;69.69;100246.38;5080959;28;20040;-68
2023/06/28 00:57:39;;;;;;;7.72;3.28;;;;;;;19.49;70.23;100236.25;5082640;28;20106;-67
2023/06/28 01:00:12;;;;;;;5.13;2.78;;;;;;;19.53;70.20;100243.84;5076737;28;20078;-67
2023/06/28 01:02:41;;;;;;;7.03;3.13;;;;;;;19.55;69.86;100241.78;5046759;28;20024;-67
2023/06/28 01:05:13;;;;;;;4.80;3.25;;;;;;;19.58;69.98;100241.38;5067918;28;20400;-66
2023/06/28 01:07:39;;;;;;;3.97;2.75;;;;;;;19.61;69.80;100240.97;5073255;28;20540;-66
2023/06/28 01:10:06;;;;;;;4.53;2.90;;;;;;;19.50;69.75;100227.91;5072214;28;20039;-67
2023/06/28 01:12:33;;;;;;;5.45;2.95;;;;;;;19.51;70.17;100229.59;5073533;28;20036;-66
2023/06/28 01:14:59;;;;;;;5.03;2.95;;;;;;;19.55;70.14;100233.63;5065148;28;20109;-66
2023/06/28 01:17:25;;;;;;;5.50;3.13;;;;;;;19.55;70.36;100240.94;5064744;28;20055;-67
2023/06/28 01:19:54;;;;;;;8.43;3.47;;;;;;;19.42;70.85;100214.44;5076526;28;20032;-67
2023/06/28 01:22:20;;;;;;;11.45;3.22;;;;;;;19.58;70.72;100232.38;5068891;28;20067;-67
2023/06/28 01:24:46;;;;;;;6.10;2.85;;;;;;;19.60;70.50;100241.19;5078919;28;20080;-67
2023/06/28 01:27:13;;;;;;;10.50;3.63;;;;;;;19.58;70.40;100235.94;5067939;28;20053;-68
2023/06/28 01:29:40;;;;;;;4.65;3.22;;;;;;;19.44;70.83;100217.81;5070707;28;20044;-67
2023/06/28 01:32:06;;;;;;;5.03;3.28;;;;;;;19.52;71.06;100234.00;5081212;28;20480;-67
2023/06/28 01:34:31;;;;;;;4.20;2.75;;;;;;;19.56;71.04;100245.34;5076695;28;20032;-67
2023/06/28 01:37:02;;;;;;;3.20;2.72;;;;;;;19.55;71.16;100247.22;5057720;28;20028;-67
2023/06/28 01:39:30;;;;;;;6.05;2.85;;;;;;;19.57;71.34;100256.03;5082407;28;20124;-67
2023/06/28 01:41:59;;;;;;;5.82;2.90;;;;;;;19.49;71.03;100245.28;5077300;28;20030;-67
2023/06/28 01:44:24;;;;;;;4.90;3.10;;;;;;;19.57;71.42;100250.59;5058670;28;20555;-67
2023/06/28 01:46:51;;;;;;;5.53;3.08;;;;;;;19.56;71.33;100248.91;5079982;28;20028;-67
2023/06/28 01:49:17;;;;;;;5.90;3.05;;;;;;;19.42;71.20;100228.06;5075114;28;20135;-67
2023/06/28 01:51:42;;;;;;;4.50;3.25;;;;;;;19.58;71.39;100256.88;5074907;28;20119;-67
2023/06/28 01:54:08;;;;;;;8.02;3.10;;;;;;;19.55;71.41;100255.41;5076264;28;20032;-66
2023/06/28 01:56:33;;;;;;;4.03;2.67;;;;;;;19.51;71.71;100250.53;5078386;28;20032;-66
2023/06/28 01:58:59;;;;;;;5.55;2.88;;;;;;;19.53;71.64;100252.00;5077450;28;20082;-67
2023/06/28 02:01:25;;;;;;;7.25;2.90;;;;;;;19.44;71.52;100247.72;5073958;28;20028;-67
2023/06/28 02:03:50;;;;;;;5.15;2.90;;;;;;;19.52;71.69;100260.38;5074659;28;20104;-67
2023/06/28 02:06:15;;;;;;;4.55;2.70;;;;;;;19.50;71.42;100259.69;5061459;28;20472;-67
2023/06/28 02:08:41;;;;;;;6.93;3.47;;;;;;;19.51;71.11;100264.94;5060623;28;20083;-67
2023/06/28 02:11:07;;;;;;;8.73;2.70;;;;;;;19.47;71.43;100249.22;5056688;28;20060;-66
2023/06/28 02:13:32;;;;;;;4.80;2.95;;;;;;;19.48;71.46;100240.03;5058238;28;20029;-66
2023/06/28 02:15:58;;;;;;;3.88;3.28;;;;;;;19.47;72.04;100244.63;5075403;28;20111;-67
2023/06/28 02:18:26;;;;;;;3.13;2.83;;;;;;;19.37;72.02;100224.19;5075459;28;20032;-66
2023/06/28 02:20:51;;;;;;;6.93;3.03;;;;;;;19.36;71.91;100219.81;5071244;28;20157;-66
2023/06/28 02:23:18;;;;;;;4.82;3.20;;;;;;;19.42;72.02;100225.34;5073769;28;20507;-67
2023/06/28 02:25:43;;;;;;;4.82;2.97;;;;;;;19.41;72.27;100226.34;5058341;28;20052;-66
2023/06/28 02:28:09;;;;;;;4.95;3.08;;;;;;;19.41;72.36;100234.50;5074532;28;20040;-67
2023/06/28 02:30:34;;;;;;;7.32;3.30;;;;;;;19.41;72.19;100231.78;5074882;28;20032;-67
2023/06/28 02:32:59;;;;;;;4.05;3.33;;;;;;;19.40;72.33;100230.13;5077401;28;20036;-66
2023/06/28 02:35:25;;;;;;;5.97;3.30;;;;;;;19.39;71.96;100231.16;5072446;28;20684;-67
2023/06/28 02:37:50;;;;;;;5.03;2.85;;;;;;;19.38;71.91;100240.31;5075287;28;20028;-66
2023/06/28 02:40:16;;;;;;;6.85;3.20;;;;;;;19.39;72.02;100239.31;5081498;28;20098;-66
2023/06/28 02:42:41;;;;;;;7.20;3.92;;;;;;;19.39;72.11;100242.03;5072972;28;20075;-66
2023/06/28 02:45:07;;;;;;;5.18;3.30;;;;;;;19.39;72.03;100242.03;5080328;28;20527;-66
2023/06/28 02:47:32;;;;;;;3.78;3.17;;;;;;;19.37;72.01;100241.38;5071791;28;20031;-67
2023/06/28 02:49:58;;;;;;;6.53;3.58;;;;;;;19.32;72.08;100241.09;5086254;28;20291;-67
2023/06/28 02:52:23;;;;;;;6.13;3.72;;;;;;;19.35;71.99;100239.91;5070794;28;20099;-66
2023/06/28 02:54:49;;;;;;;5.72;3.28;;;;;;;19.23;72.11;100228.66;5066019;28;20047;-67
2023/06/28 02:57:14;;;;;;;5.28;3.67;;;;;;;19.26;72.34;100241.91;5065319;28;20032;-67
2023/06/28 02:59:39;;;;;;;8.13;3.58;;;;;;;19.29;72.36;100243.38;5068195;28;20039;-67
2023/06/28 03:02:05;;;;;;;6.72;3.20;;;;;;;19.26;72.25;100244.63;5078035;28;20027;-67
2023/06/28 03:04:31;;;;;;;5.80;3.58;;;;;;;19.25;72.25;100245.59;5086536;28;20024;-67
2023/06/28 03:06:56;;;;;;;6.35;3.40;;;;;;;19.17;72.42;100225.84;5077412;28;20032;-67
2023/06/28 03:09:22;;;;;;;3.95;2.90;;;;;;;19.21;72.73;100238.84;5078239;28;20468;-67
2023/06/28 03:11:48;;;;;;;7.45;3.58;;;;;;;19.20;73.03;100239.91;5077829;28;20032;-66
2023/06/28 03:14:13;;;;;;;3.58;3.10;;;;;;;19.09;72.72;100226.78;5082359;28;20385;-67
2023/06/28 03:16:39;;;;;;;8.27;3.63;;;;;;;19.19;72.32;100246.34;5066127;28;20032;-67
2023/06/28 03:19:07;;;;;;;3.85;2.95;;;;;;;19.07;72.50;100222.59;5085045;28;20063;-67
2023/06/28 03:21:32;;;;;;;4.60;3.28;;;;;;;19.16;72.40;100245.91;5067944;28;20590;-66
2023/06/28 03:23:57;;;;;;;7.70;3.25;;;;;;;19.17;72.32;100248.44;5058687;28;20020;-67
2023/06/28 03:26:23;;;;;;;7.70;3.35;;;;;;;19.14;72.43;100246.09;5082399;28;20032;-67
2023/06/28 03:28:48;;;;;;;6.47;3.45;;;;;;;19.16;72.79;100245.91;5085653;28;20418;-66
2023/06/28 03:31:14;;;;;;;5.40;3.13;;;;;;;19.16;72.88;100245.91;5075173;28;20058;-67
2023/06/28 03:33:39;;;;;;;5.63;3.28;;;;;;;19.13;72.80;100244.44;5086037;28;20077;-67
2023/06/28 03:36:05;;;;;;;5.90;3.22;;;;;;;19.12;73.37;100241.91;5076942;28;20379;-67
2023/06/28 03:38:30;;;;;;;6.78;3.40;;;;;;;19.10;73.29;100238.50;5071099;28;20024;-67
2023/06/28 03:40:55;;;;;;;5.30;2.90;;;;;;;19.10;73.45;100247.53;5079291;28;20032;-67
2023/06/28 03:43:21;;;;;;;7.07;3.13;;;;;;;19.08;73.36;100252.28;5083143;28;20549;-66
2023/06/28 03:45:46;;;;;;;5.38;3.13;;;;;;;19.09;73.62;100242.28;5074490;28;20030;-67
2023/06/28 03:48:12;;;;;;;5.85;2.70;;;;;;;19.08;73.59;100248.72;5064816;28;20083;-68
2023/06/28 03:50:37;;;;;;;5.85;3.40;;;;;;;19.03;73.52;100243.03;5068656;28;20490;-67
2023/06/28 03:53:03;;;;;;;4.63;2.80;;;;;;;18.98;73.58;100237.31;5064859;28;20032;-67
2023/06/28 03:55:29;;;;;;;5.50;3.30;;;;;;;18.99;73.85;100234.41;5076429;28;20123;-67
2023/06/28 03:57:55;;;;;;;4.85;2.53;;;;;;;19.05;74.26;100244.53;5075797;28;20119;-67
2023/06/28 04:00:21;;;;;;;3.35;2.67;;;;;;;18.90;74.18;100223.84;5085115;28;20103;-65
2023/06/28 04:02:46;;;;;;;3.70;2.92;;;;;;;18.96;73.89;100232.06;5070600;28;20024;-66
2023/06/28 04:05:12;;;;;;;3.55;2.80;;;;;;;19.00;74.16;100240.69;5058369;28;20108;-66
2023/06/28 04:07:37;;;;;;;8.73;2.80;;;;;;;18.94;74.42;100236.88;5075107;28;20527;-65
2023/06/28 04:10:04;;;;;;;4.65;3.13;;;;;;;18.97;74.31;100244.66;5058465;28;20028;-67
2023/06/28 04:12:29;;;;;;;4.57;2.60;;;;;;;18.93;74.20;100229.72;5078261;28;20096;-67
2023/06/28 04:14:55;;;;;;;4.55;2.83;;;;;;;18.92;74.10;100228.03;5075552;28;20024;-67
2023/06/28 04:17:20;;;;;;;5.07;3.05;;;;;;;18.97;74.00;100235.63;5074815;28;20020;-66
2023/06/28 04:19:45;;;;;;;2.97;2.35;;;;;;;18.92;74.15;100236.19;5073246;28;20081;-66
2023/06/28 04:22:11;;;;;;;5.00;3.13;;;;;;;18.94;74.08;100239.59;5075236;28;20029;-66
2023/06/28 04:24:37;;;;;;;4.85;2.85;;;;;;;18.95;74.53;100243.97;5072922;28;20036;-68
2023/06/28 04:27:03;;;;;;;5.95;3.03;;;;;;;18.95;74.44;100243.97;5076268;28;20044;-66
2023/06/28 04:29:28;;;;;;;3.28;2.97;;;;;;;18.95;74.76;100246.69;5073241;28;20531;-67
2023/06/28 04:31:59;;;;;;;8.32;3.50;;;;;;;18.95;75.09;100245.84;5058614;28;20036;-66
2023/06/28 04:34:24;;;;;;;6.43;2.92;;;;;;;18.90;75.27;100230.13;5073025;28;20119;-67
2023/06/28 04:36:50;;;;;;;6.85;2.83;;;;;;;18.90;75.54;100243.72;5081700;28;20132;-66
2023/06/28 04:39:15;;;;;;;8.68;3.60;;;;;;;18.87;75.70;100246.81;5069726;28;20024;-66
2023/06/28 04:41:40;;;;;;;6.05;3.03;;;;;;;18.91;76.63;100258.13;5082816;28;20032;-66
2023/06/28 04:44:09;;;;;;;4.75;3.30;;;;;;;18.90;77.06;100253.75;5082042;28;21553;-67
2023/06/28 04:46:35;;;;;;;5.68;3.70;;;;;;;18.91;77.88;100247.25;5064618;28;20174;-66
2023/06/28 04:49:00;;;;;;;9.05;3.45;;;;;;;18.85;77.75;100246.16;5077050;28;20055;-67
2023/06/28 04:51:26;;;;;;;8.70;3.60;;;;;;;18.93;77.82;100251.47;5077130;28;20028;-66
2023/06/28 04:53:52;;;;;;;5.15;3.22;;;;;;;18.95;77.97;100249.41;5073866;28;20703;-66
2023/06/28 04:56:20;;;;;;;5.47;3.30;;;;;;;18.86;78.26;100242.41;5048999;28;20353;-66
2023/06/28 04:58:45;;;;;;;6.82;3.00;;;;;;;18.86;78.30;100244.28;5081741;28;20036;-65
2023/06/28 05:01:11;;;;;;;5.05;3.45;;;;;;;18.96;78.42;100253.81;5081699;28;20041;-66
2023/06/28 05:03:38;;;;;;;6.95;3.70;;;;;;;18.98;78.33;100254.47;5085134;28;20041;-66
2023/06/28 05:06:07;;;;;;;5.63;3.40;;;;;;;18.92;78.59;100247.06;5074423;28;21303;-66
2023/06/28 05:08:34;;;;;;;7.95;4.03;;;;;;;19.01;78.71;100256.81;5068587;28;20113;-66
2023/06/28 05:11:00;;;;;;;8.98;4.35;;;;;;;18.99;79.17;100256.16;5076291;28;20155;-66
2023/06/28 05:13:25;;;;;;;7.18;4.07;;;;;;;19.00;79.19;100262.44;5070570;28;20107;-66
2023/06/28 05:15:51;;;;;;;6.45;3.35;;;;;;;18.87;79.22;100235.94;5082777;28;20103;-65
2023/06/28 05:18:18;;;;;;;7.50;4.15;;;;;;;19.02;79.51;100268.53;5084513;28;20114;-66
2023/06/28 05:20:43;;;;;;;7.10;4.28;;;;;;;18.99;79.92;100258.88;5070611;28;20500;-66
2023/06/28 05:23:22;;;;;;;4.75;3.63;;;;;;;19.08;79.76;100262.31;5074142;28;20055;-66
2023/06/28 05:25:47;;;;;;;5.50;3.65;;;;;;;18.96;80.33;100255.72;5077551;28;20037;-65
2023/06/28 05:28:14;;;;;;;9.95;4.47;;;;;;;18.99;80.65;100258.88;5078425;28;20028;-66
2023/06/28 05:30:41;;;;;;;5.93;4.63;;;;;;;18.91;80.82;100253.56;5080867;28;20051;-65
2023/06/28 05:33:07;;;;;;;5.30;3.45;;;;;;;18.97;80.95;100255.53;5073720;28;20765;-66
2023/06/28 05:35:33;;;;;;;6.47;4.10;;;;;;;19.05;81.13;100262.69;5071979;28;20039;-67
2023/06/28 05:37:59;;;;;;;4.43;3.60;;;;;;;19.08;80.86;100268.63;5080834;28;20047;-66
2023/06/28 05:40:29;;;;;;;7.07;4.10;;;;;;;19.12;80.38;100269.91;5079105;28;20032;-66
2023/06/28 05:42:57;;;;;;;5.75;3.63;;;;;;;19.14;80.36;100264.28;5086757;28;20031;-67
2023/06/28 05:45:23;;;;;;;5.68;4.10;;;;;;;19.07;80.38;100261.50;5073225;28;20073;-66
2023/06/28 05:47:50;;;;;;;6.50;4.45;;;;;;;19.04;80.77;100247.44;5061955;28;20377;-66
2023/06/28 05:50:16;;;;;;;6.30;4.82;;;;;;;19.18;80.79;100271.88;5079884;28;20039;-67
2023/06/28 05:52:47;;;;;;;7.38;4.47;;;;;;;19.09;81.24;100255.88;5075321;28;20499;-66
2023/06/28 05:55:12;;;;;;;8.98;4.80;;;;;;;19.22;81.17;100277.78;5069179;28;20486;-67
2023/06/28 05:57:39;;;;;;;7.78;4.07;;;;;;;19.23;81.33;100282.19;5073367;28;20036;-67
2023/06/28 06:00:05;;;;;;;6.82;4.32;;;;;;;19.16;81.37;100273.97;5080515;28;20039;-66
2023/06/28 06:02:31;;;;;;;8.32;4.10;;;;;;;19.16;81.57;100270.38;5081903;28;20070;-66
2023/06/28 06:04:58;;;;;;;6.65;4.57;;;;;;;19.22;81.45;100283.22;5082858;28;20055;-67
2023/06/28 06:07:23;;;;;;;7.22;4.90;;;;;;;19.28;81.77;100291.47;5075421;28;20075;-66
2023/06/28 06:09:49;;;;;;;5.10;4.38;;;;;;;19.25;80.20;100274.69;5079732;28;20056;-66
2023/06/28 06:12:14;;;;;;;8.35;4.40;;;;;;;19.36;80.07;100287.81;5079876;28;20134;-66
2023/06/28 06:14:39;;;;;;;7.20;3.90;;;;;;;19.34;80.44;100285.28;5054956;28;20035;-68
2023/06/28 06:17:05;;;;;;;9.52;4.53;;;;;;;19.38;79.86;100294.72;5074944;28;20028;-67
2023/06/28 06:19:31;;;;;;;7.25;4.30;;;;;;;19.30;79.52;100278.53;5081605;28;20788;-67
2023/06/28 06:21:56;;;;;;;10.20;4.82;;;;;;;19.39;79.87;100299.16;5071356;28;20036;-66
2023/06/28 06:24:21;;;;;;;6.18;4.45;;;;;;;19.33;79.35;100278.16;5080600;28;20032;-66
2023/06/28 06:26:47;;;;;;;6.40;4.00;;;;;;;19.45;78.53;100305.72;5079984;28;20599;-66
2023/06/28 06:29:12;;;;;;;8.63;3.92;;;;;;;19.44;78.84;100298.59;5079620;28;20024;-67
2023/06/28 06:31:38;;;;;;;5.75;4.20;;;;;;;19.49;78.21;100296.13;5082148;28;20040;-67
2023/06/28 06:34:03;;;;;;;10.50;4.55;;;;;;;19.48;78.47;100300.69;5056465;28;20183;-66
2023/06/28 06:36:29;;;;;;;7.15;4.38;;;;;;;19.49;77.86;100302.41;5067968;28;20480;-66
2023/06/28 06:38:56;;;;;;;7.82;4.75;;;;;;;19.42;77.76;100296.06;5067960;28;20032;-66
2023/06/28 06:41:22;;;;;;;7.55;3.78;;;;;;;19.38;77.87;100288.47;5068231;28;20107;-67
2023/06/28 06:43:48;;;;;;;8.07;4.50;;;;;;;19.50;78.36;100309.53;5070732;28;20118;-66
2023/06/28 06:46:21;;;;;;;7.35;4.45;;;;;;;19.52;78.96;100315.63;5082507;28;20055;-67
2023/06/28 06:48:47;;;;;;;4.95;3.78;;;;;;;19.61;77.89;100317.19;5078737;28;20494;-66
2023/06/28 06:51:13;;;;;;;4.53;3.53;;;;;;;19.65;78.12;100325.81;5085917;28;20024;-66
2023/06/28 06:53:38;;;;;;;5.93;4.25;;;;;;;19.69;78.02;100332.53;5062795;28;20101;-66
2023/06/28 06:56:04;;;;;;;8.23;4.22;;;;;;;19.60;77.81;100314.66;5075266;28;20086;-67
2023/06/28 06:58:30;;;;;;;4.85;4.03;;;;;;;19.67;76.92;100321.84;5080789;28;20064;-66
2023/06/28 07:00:55;;;;;;;8.23;4.00;;;;;;;19.74;76.79;100332.81;5078800;28;20160;-66
2023/06/28 07:03:21;;;;;;;6.10;4.35;;;;;;;19.77;77.28;100336.00;5085966;28;20020;-66
2023/06/28 07:05:46;;;;;;;5.82;4.03;;;;;;;19.73;77.11;100321.09;5084513;28;20024;-67
2023/06/28 07:08:12;;;;;;;4.93;3.47;;;;;;;19.81;76.99;100331.88;5054144;28;20028;-67
2023/06/28 07:10:37;;;;;;;5.05;3.58;;;;;;;19.85;76.47;100345.91;5086339;28;20605;-65
2023/06/28 07:13:03;;;;;;;5.50;3.33;;;;;;;19.69;74.59;100311.63;5079757;28;20021;-67
2023/06/28 07:15:29;;;;;;;6.40;3.92;;;;;;;19.81;73.19;100329.16;5081815;28;20130;-65
2023/06/28 07:17:55;;;;;;;6.32;3.03;;;;;;;19.84;72.09;100339.66;5082604;28;20081;-67
2023/06/28 07:20:21;;;;;;;4.55;3.25;;;;;;;19.85;72.12;100333.16;5079961;28;20461;-68
2023/06/28 07:22:47;;;;;;;3.58;3.10;;;;;;;19.89;71.85;100333.59;5082587;28;20035;-67
2023/06/28 07:25:13;;;;;;;6.15;3.78;;;;;;;19.89;70.80;100331.72;5072994;28;20914;-67
2023/06/28 07:27:38;;;;;;;5.65;3.20;;;;;;;19.92;70.35;100333.22;5053504;28;20050;-67
2023/06/28 07:30:06;;;;;;;3.92;2.85;;;;;;;19.87;70.39;100339.22;5085736;28;20475;-67
2023/06/28 07:32:34;;;;;;;6.15;2.80;;;;;;;19.91;70.30;100347.88;5066908;28;20484;-68
2023/06/28 07:35:03;;;;;;;8.05;3.00;;;;;;;19.83;70.56;100334.41;5083054;28;20035;-67
2023/06/28 07:37:30;;;;;;;5.13;2.97;;;;;;;19.95;70.48;100349.16;5080663;28;20035;-67
2023/06/28 07:39:57;;;;;;;5.30;3.25;;;;;;;19.74;69.68;100308.34;5047585;28;20028;-67
2023/06/28 07:42:23;;;;;;;5.55;2.85;;;;;;;19.84;69.06;100327.91;5065670;28;20132;-67
2023/06/28 07:44:49;;;;;;;4.50;2.78;;;;;;;19.97;69.42;100342.50;5073408;28;20107;-66
2023/06/28 07:47:14;;;;;;;4.22;2.70;;;;;;;19.91;69.34;100335.09;5072869;28;20023;-67
2023/06/28 07:49:40;;;;;;;7.03;3.38;;;;;;;20.00;69.69;100352.97;5085385;28;20036;-66
2023/06/28 07:52:06;;;;;;;4.63;2.58;;;;;;;19.99;70.25;100358.63;5080268;28;20033;-68
2023/06/28 07:54:31;;;;;;;5.65;2.83;;;;;;;19.95;70.70;100339.13;5052302;28;20020;-66
2023/06/28 07:56:57;;;;;;;4.72;2.33;;;;;;;20.01;70.88;100351.97;5067744;28;20024;-67
2023/06/28 07:59:22;;;;;;;5.65;2.10;;;;;;;19.93;70.68;100335.75;5065065;28;20028;-67
2023/06/28 08:01:49;;;;;;;5.30;2.53;;;;;;;20.03;70.53;100352.59;5072099;28;20079;-67
2023/06/28 08:04:16;;;;;;;4.55;2.72;;;;;;;20.07;70.92;100351.19;5085289;28;20755;-67
2023/06/28 08:06:45;;;;;;;5.07;2.80;;;;;;;20.07;70.53;100343.03;5085388;28;20028;-67
2023/06/28 08:09:11;;;;;;;3.13;2.45;;;;;;;20.10;70.28;100344.50;5070101;28;20032;-67
2023/06/28 08:11:36;;;;;;;5.15;2.22;;;;;;;20.09;70.38;100353.72;5067574;28;20027;-66
2023/06/28 08:14:02;;;;;;;4.55;2.28;;;;;;;20.14;68.81;100348.53;5078911;28;20042;-67
2023/06/28 08:16:28;;;;;;;3.97;2.22;;;;;;;20.16;67.49;100344.59;5070351;28;20028;-67
2023/06/28 08:18:53;;;;;;;4.15;2.10;;;;;;;20.16;65.23;100350.03;5053096;28;20059;-67
2023/06/28 08:21:18;;;;;;;3.38;1.90;;;;;;;20.15;65.16;100364.69;5077357;28;20039;-67
2023/06/28 08:23:44;;;;;;;4.93;2.28;;;;;;;20.11;64.76;100343.44;5065101;28;20039;-66
2023/06/28 08:26:09;;;;;;;2.08;1.48;;;;;;;20.23;65.24;100351.97;5074797;28;20052;-68
2023/06/28 08:28:35;;;;;;;1.83;1.58;;;;;;;20.19;64.65;100336.03;5084989;28;20028;-66
2023/06/28 08:31:00;;;;;;;2.65;1.80;;;;;;;20.34;64.08;100362.34;5067341;28;20055;-67
2023/06/28 08:33:26;;;;;;;3.35;1.90;;;;;;;20.37;63.64;100364.69;5085113;28;20090;-67
2023/06/28 08:35:51;;;;;;;2.78;1.67;;;;;;;20.29;62.60;100343.88;5077177;28;20087;-67
2023/06/28 08:38:17;;;;;;;4.55;2.10;;;;;;;20.43;61.20;100377.50;5074468;28;20368;-67
2023/06/28 08:40:42;;;;;;;4.53;2.00;;;;;;;20.45;60.35;100379.03;5082100;28;20028;-66
2023/06/28 08:43:12;;;;;;;3.38;1.60;;;;;;;20.49;60.09;100374.84;5069267;28;20115;-65
2023/06/28 08:45:38;;;;;;;4.50;1.73;;;;;;;20.34;59.44;100359.63;5079169;28;20040;-67
2023/06/28 08:48:04;;;;;;;7.25;1.77;;;;;;;20.49;59.51;100388.47;5085171;28;20027;-66
2023/06/28 08:50:30;;;;;;;5.40;1.63;;;;;;;20.47;58.05;100366.03;5081631;28;20024;-67
2023/06/28 08:52:57;;;;;;;4.75;1.80;;;;;;;20.48;58.15;100375.06;5077476;28;20591;-67
2023/06/28 08:55:23;;;;;;;1.70;1.33;;;;;;;20.42;58.25;100354.03;5086478;28;20017;-67
2023/06/28 08:57:49;;;;;;;3.17;1.52;;;;;;;20.46;58.04;100356.16;5068457;28;20070;-67
2023/06/28 09:00:15;;;;;;;3.95;1.83;;;;;;;20.45;58.65;100350.91;5070787;28;20031;-67
2023/06/28 09:02:43;;;;;;;8.80;2.17;;;;;;;20.57;58.88;100371.16;5077050;28;20111;-66
2023/06/28 09:05:10;;;;;;;9.80;2.33;;;;;;;20.57;59.03;100362.97;5088400;28;20036;-67
2023/06/28 09:07:39;;;;;;;5.65;2.00;;;;;;;20.55;58.86;100352.28;5085681;28;20028;-67
2023/06/28 09:10:09;;;;;;;4.75;1.83;;;;;;;20.56;59.34;100364.00;5085128;28;20035;-66
2023/06/28 09:12:34;;;;;;;3.45;1.40;;;;;;;20.63;59.03;100373.91;5078739;28;20024;-66
2023/06/28 09:15:01;;;;;;;3.58;1.75;;;;;;;20.67;58.71;100366.19;5067746;28;20047;-66
2023/06/28 09:17:26;;;;;;;3.40;1.40;;;;;;;20.79;56.49;100359.97;5068350;28;20629;-66
2023/06/28 09:19:52;;;;;;;2.67;1.48;;;;;;;20.73;56.15;100343.59;5079370;28;20172;-66
2023/06/28 09:22:18;;;;;;;2.92;1.40;;;;;;;20.70;56.47;100333.09;5080419;28;20479;-67
2023/06/28 09:24:48;;;;;;;1.13;0.98;;;;;;;20.90;54.90;100355.88;4726196;28;9999874;-68
2023/06/28 09:27:15;;;;;;;3.05;1.20;;;;;;;20.98;53.04;100358.44;5074512;28;20039;-67
2023/06/28 09:29:40;;;;;;;2.75;1.17;;;;;;;21.01;53.10;100355.31;5080445;28;20387;-67
2023/06/28 09:32:06;;;;;;;2.88;1.30;;;;;;;21.08;53.08;100351.59;5065343;28;20040;-67
2023/06/28 09:34:32;;;;;;;1.98;1.23;;;;;;;21.12;53.62;100354.78;5077769;28;20028;-67
2023/06/28 09:36:59;;;;;;;6.50;1.58;;;;;;;21.15;53.87;100359.84;5052652;28;20551;-66
2023/06/28 09:39:27;;;;;;;2.20;1.13;;;;;;;21.21;54.00;100365.31;5069328;28;20119;-66
2023/06/28 09:41:53;;;;;;;2.85;1.45;;;;;;;21.25;53.57;100363.84;5047105;28;20483;-68
2023/06/28 09:44:28;;;;;;;2.70;1.45;;;;;;;21.21;53.48;100351.66;5073455;28;20028;-66
2023/06/28 09:46:58;;;;;;;;;;;;;;;21.25;52.65;100358.41;5080083;28;20024;-67
2023/06/28 09:49:24;;;;;;;2.30;1.20;;;;;;;21.28;53.53;100346.25;5063828;28;20309;-67
2023/06/28 09:52:04;;;;;;;2.08;1.30;;;;;;;21.34;53.09;100346.28;5074101;28;20468;-67
2023/06/28 09:54:44;;;;;;;2.67;1.10;;;;;;;21.38;52.87;100338.53;5063445;28;20032;-66
2023/06/28 09:57:10;;;;;;;3.58;1.00;;;;;;;21.57;51.79;100356.88;5073301;28;20054;-66
2023/06/28 09:59:36;;;;;;;2.60;1.02;;;;;;;21.61;51.36;100345.31;5069111;28;20105;-66
2023/06/28 10:02:06;;;;;;;3.72;1.00;;;;;;;21.65;49.38;100338.44;5077457;28;20035;-67
2023/06/28 10:04:34;;;;;;;5.07;1.38;;;;;;;21.77;48.65;100341.44;5063505;28;20035;-66
2023/06/28 10:07:02;;;;;;;3.00;0.85;;;;;;;21.74;50.09;100339.13;5065450;28;20032;-67
2023/06/28 10:09:39;;;;;;;2.00;1.10;;;;;;;21.78;49.96;100340.38;5079358;28;20154;-67
2023/06/28 10:12:23;;;;;;;2.15;0.98;;;;;;;21.83;50.58;100335.16;5062448;28;20042;-67
2023/06/28 10:14:58;;;;;;;3.05;1.30;;;;;;;21.89;51.22;100337.03;5067195;28;20726;-66
2023/06/28 10:17:25;;;;;;;2.55;1.20;;;;;;;22.02;50.91;100340.63;5081991;28;20030;-67
2023/06/28 10:19:52;;;;;;;6.82;1.25;;;;;;;22.10;50.25;100324.06;5065596;28;20042;-67
2023/06/28 10:22:18;;;;;;;1.58;1.00;;;;;;;22.15;50.16;100328.88;5072985;28;20181;-68
2023/06/28 10:24:45;;;;;;;3.45;1.23;;;;;;;22.20;50.32;100319.03;5061010;28;20119;-67
2023/06/28 10:27:12;;;;;;;3.80;1.23;;;;;;;22.28;50.06;100335.19;5044121;28;20040;-67
2023/06/28 10:29:39;;;;;;;2.85;1.25;;;;;;;22.32;49.84;100328.25;5064899;28;20077;-66
2023/06/28 10:32:07;;;;;;;3.35;0.90;;;;;;;22.34;48.74;100322.59;5077438;28;20047;-67
2023/06/28 10:34:34;;;;;;;2.45;1.42;;;;;;;22.47;48.83;100330.78;5072068;28;20103;-66
2023/06/28 10:37:00;;;;;;;2.20;1.35;;;;;;;22.47;48.86;100328.03;5076934;28;20044;-66
2023/06/28 10:39:26;;;;;;;5.65;1.25;;;;;;;22.50;49.54;100332.31;5076273;28;20077;-66
2023/06/28 10:41:56;;;;;;;3.80;1.30;;;;;;;22.52;49.41;100333.78;5069752;28;20108;-67
2023/06/28 10:44:21;;;;;;;4.35;1.00;;;;;;;22.44;48.43;100327.66;5071819;28;20047;-67
2023/06/28 10:47:06;;;;;;;1.48;1.00;;;;;;;22.48;48.23;100337.94;5076218;28;20028;-66
2023/06/28 10:49:35;;;;;;;5.18;1.33;;;;;;;22.47;47.39;100333.50;5076792;28;20032;-67
2023/06/28 10:52:01;;;;;;;3.83;1.27;;;;;;;22.50;47.38;100330.38;5068160;28;20032;-67
2023/06/28 10:54:27;;;;;;;2.97;1.20;;;;;;;22.53;47.16;100318.22;5076561;28;20035;-68
2023/06/28 10:56:55;;;;;;;3.53;1.10;;;;;;;22.63;46.94;100315.88;5067202;28;20020;-67
2023/06/28 10:59:20;;;;;;;3.47;1.05;;;;;;;22.64;46.39;100307.47;5072418;28;20024;-68
2023/06/28 11:01:48;;;;;;;1.30;0.85;;;;;;;22.66;46.45;100310.00;5074074;28;20039;-67
2023/06/28 11:04:25;;;;;;;3.20;1.17;;;;;;;22.72;45.35;100304.50;5077374;28;20407;-67
2023/06/28 11:07:02;;;;;;;2.35;0.90;;;;;;;22.72;45.25;100296.28;5078987;28;20032;-67
2023/06/28 11:09:28;;;;;;;1.60;0.70;;;;;;;22.69;45.59;100287.69;5072592;28;20032;-67
2023/06/28 11:11:56;;;;;;;4.13;1.35;;;;;;;22.78;45.42;100291.88;5078544;28;20026;-67
2023/06/28 11:14:26;;;;;;;1.77;1.10;;;;;;;22.83;44.59;100294.81;5082457;28;20081;-67
2023/06/28 11:16:58;;;;;;;4.28;1.05;;;;;;;22.88;44.85;100284.91;5085293;28;20024;-67
2023/06/28 11:19:26;;;;;;;1.40;0.88;;;;;;;23.03;42.12;100287.38;5071253;28;20038;-67
2023/06/28 11:21:59;;;;;;;2.95;0.90;;;;;;;23.03;41.88;100285.50;5054009;28;20032;-67